イスタンブル の空港の天気 - METARとTAF

アタテュルク国際空港(イスタンブル) ( LTBA / IST ) - トルコ イスタンブル
飛行場実況気象(Metar)
観測時間10/28 19:20 EET (10/28 16:20 UTC)
風向・風速北東 3m/s
視程10km以上
天気現象
少しの雲 雲底高度 460m
全天の4割程度の雲 雲底高度 910m
全天の8割程度の雲 雲底高度 2130m
気温20℃
湿度83%
気圧1016hPa
METARLTBA 281620Z 04005KT 9999 FEW015 SCT030 BKN070 20/17 Q1016 NOSIG
過去の天気等 Google飛行場航空写真 Wunderground天気予報

過去48時間のMETAR

飛行場予報(TAF)
発表時間: 10/28 13:40 EET (10/28 10:40 UTC)
予報対象時間: 28日15時 EET ~ 29日21時 EET
風向・風速不定 1m/s
視程10km以上
全天の8割程度の雲 雲底高度 910m
28日16時 EET ~ 28日19時 EET に徐々に
全天の4割程度の雲 雲底高度 910m
29日0時 EET ~ 29日3時 EET に徐々に
全天の8割程度の雲 雲底高度 910m
29日2時 EET ~ 29日6時 EET に一時的に
天気現象弱いしゅう雨
全天の4割程度の雲 雲底高度 300m
全天の8割程度の雲 雲底高度 760m
29日7時 EET ~ 29日11時 EET に一時的に
天気現象弱い雷雨
少しの積乱雲 雲底高度 520m
全天の8割程度の雲 雲底高度 760m
29日14時 EET ~ 29日17時 EET に徐々に
全天の4割程度の雲 雲底高度 910m
TAF LTBA 281040Z 2812/2918 VRB02KT 9999 BKN030
BECMG 2813/2816 SCT030
BECMG 2821/2824 BKN030
TEMPO 2823/2903 -SHRA SCT010 BKN025
TEMPO 2904/2908 -TSRA FEW017CB BKN025
BECMG 2911/2914 SCT030